sensor_id;sensor_type;location;lat;lon;timestamp;P1;durP1;ratioP1;P2;durP2;ratioP2
27163;SDS011;14685;50.618;7.024;2024-03-08T00:00:09;25.48;;;16.85;;
27163;SDS011;14685;50.618;7.024;2024-03-08T00:05:10;22.92;;;15.30;;
27163;SDS011;14685;50.618;7.024;2024-03-08T00:07:38;21.98;;;15.75;;
27163;SDS011;14685;50.618;7.024;2024-03-08T00:10:07;26.40;;;15.93;;
27163;SDS011;14685;50.618;7.024;2024-03-08T00:12:40;22.70;;;15.68;;
27163;SDS011;14685;50.618;7.024;2024-03-08T00:15:12;22.27;;;16.42;;
27163;SDS011;14685;50.618;7.024;2024-03-08T00:17:42;26.48;;;17.23;;
27163;SDS011;14685;50.618;7.024;2024-03-08T00:20:14;23.70;;;16.70;;
27163;SDS011;14685;50.618;7.024;2024-03-08T00:22:41;25.27;;;16.77;;
27163;SDS011;14685;50.618;7.024;2024-03-08T00:25:08;24.30;;;16.85;;
27163;SDS011;14685;50.618;7.024;2024-03-08T00:27:36;22.98;;;15.40;;
27163;SDS011;14685;50.618;7.024;2024-03-08T00:30:05;25.15;;;16.58;;
27163;SDS011;14685;50.618;7.024;2024-03-08T00:32:33;23.88;;;16.70;;
27163;SDS011;14685;50.618;7.024;2024-03-08T00:35:00;24.17;;;15.50;;
27163;SDS011;14685;50.618;7.024;2024-03-08T00:37:28;25.85;;;16.20;;
27163;SDS011;14685;50.618;7.024;2024-03-08T00:39:54;26.45;;;16.60;;
27163;SDS011;14685;50.618;7.024;2024-03-08T00:42:21;23.98;;;16.38;;
27163;SDS011;14685;50.618;7.024;2024-03-08T00:44:48;29.65;;;16.35;;
27163;SDS011;14685;50.618;7.024;2024-03-08T00:47:18;24.90;;;16.17;;
27163;SDS011;14685;50.618;7.024;2024-03-08T00:49:45;26.83;;;16.73;;
27163;SDS011;14685;50.618;7.024;2024-03-08T00:52:13;24.95;;;16.40;;
27163;SDS011;14685;50.618;7.024;2024-03-08T00:54:40;26.60;;;17.45;;
27163;SDS011;14685;50.618;7.024;2024-03-08T00:57:10;26.63;;;16.23;;
27163;SDS011;14685;50.618;7.024;2024-03-08T00:59:38;24.77;;;17.17;;
27163;SDS011;14685;50.618;7.024;2024-03-08T01:02:05;20.95;;;15.60;;
27163;SDS011;14685;50.618;7.024;2024-03-08T01:04:35;23.58;;;16.90;;
27163;SDS011;14685;50.618;7.024;2024-03-08T01:07:02;24.92;;;15.80;;
27163;SDS011;14685;50.618;7.024;2024-03-08T01:09:29;26.65;;;16.65;;
27163;SDS011;14685;50.618;7.024;2024-03-08T01:11:56;24.23;;;16.25;;
27163;SDS011;14685;50.618;7.024;2024-03-08T01:14:23;28.70;;;17.65;;
27163;SDS011;14685;50.618;7.024;2024-03-08T01:16:55;25.42;;;16.23;;
27163;SDS011;14685;50.618;7.024;2024-03-08T01:19:22;24.20;;;16.80;;
27163;SDS011;14685;50.618;7.024;2024-03-08T01:21:51;26.15;;;16.67;;
27163;SDS011;14685;50.618;7.024;2024-03-08T01:24:18;24.65;;;16.23;;
27163;SDS011;14685;50.618;7.024;2024-03-08T01:26:46;24.40;;;16.85;;
27163;SDS011;14685;50.618;7.024;2024-03-08T01:29:14;27.00;;;16.25;;
27163;SDS011;14685;50.618;7.024;2024-03-08T01:31:41;25.13;;;16.70;;
27163;SDS011;14685;50.618;7.024;2024-03-08T01:34:08;26.85;;;16.10;;
27163;SDS011;14685;50.618;7.024;2024-03-08T01:36:35;25.48;;;15.68;;
27163;SDS011;14685;50.618;7.024;2024-03-08T01:39:03;24.98;;;16.02;;
27163;SDS011;14685;50.618;7.024;2024-03-08T01:41:35;26.65;;;18.13;;
27163;SDS011;14685;50.618;7.024;2024-03-08T01:44:02;33.30;;;17.75;;
27163;SDS011;14685;50.618;7.024;2024-03-08T01:46:29;23.33;;;15.60;;
27163;SDS011;14685;50.618;7.024;2024-03-08T01:48:57;27.02;;;17.52;;
27163;SDS011;14685;50.618;7.024;2024-03-08T01:51:30;27.67;;;17.00;;
27163;SDS011;14685;50.618;7.024;2024-03-08T01:53:57;26.83;;;17.00;;
27163;SDS011;14685;50.618;7.024;2024-03-08T01:56:26;25.67;;;16.52;;
27163;SDS011;14685;50.618;7.024;2024-03-08T01:58:53;27.92;;;16.52;;
27163;SDS011;14685;50.618;7.024;2024-03-08T02:01:22;26.80;;;17.05;;
27163;SDS011;14685;50.618;7.024;2024-03-08T02:03:52;30.58;;;17.92;;
27163;SDS011;14685;50.618;7.024;2024-03-08T02:06:19;25.73;;;16.75;;
27163;SDS011;14685;50.618;7.024;2024-03-08T02:08:48;25.33;;;16.75;;
27163;SDS011;14685;50.618;7.024;2024-03-08T02:11:15;26.92;;;17.15;;
27163;SDS011;14685;50.618;7.024;2024-03-08T02:13:42;30.17;;;16.98;;
27163;SDS011;14685;50.618;7.024;2024-03-08T02:16:12;26.13;;;16.52;;
27163;SDS011;14685;50.618;7.024;2024-03-08T02:18:39;27.65;;;17.25;;
27163;SDS011;14685;50.618;7.024;2024-03-08T02:21:08;26.85;;;17.67;;
27163;SDS011;14685;50.618;7.024;2024-03-08T02:23:37;30.60;;;18.40;;
27163;SDS011;14685;50.618;7.024;2024-03-08T02:26:04;27.15;;;17.15;;
27163;SDS011;14685;50.618;7.024;2024-03-08T02:28:35;28.83;;;18.60;;
27163;SDS011;14685;50.618;7.024;2024-03-08T02:31:03;27.13;;;17.23;;
27163;SDS011;14685;50.618;7.024;2024-03-08T02:33:34;24.40;;;16.70;;
27163;SDS011;14685;50.618;7.024;2024-03-08T02:36:01;25.60;;;17.98;;
27163;SDS011;14685;50.618;7.024;2024-03-08T02:38:37;30.30;;;18.15;;
27163;SDS011;14685;50.618;7.024;2024-03-08T02:41:10;28.70;;;16.60;;
27163;SDS011;14685;50.618;7.024;2024-03-08T02:43:37;26.10;;;17.45;;
27163;SDS011;14685;50.618;7.024;2024-03-08T02:46:04;26.05;;;15.60;;
27163;SDS011;14685;50.618;7.024;2024-03-08T02:48:31;26.85;;;17.90;;
27163;SDS011;14685;50.618;7.024;2024-03-08T02:51:02;29.80;;;18.00;;
27163;SDS011;14685;50.618;7.024;2024-03-08T02:53:29;28.67;;;18.20;;
27163;SDS011;14685;50.618;7.024;2024-03-08T02:55:57;28.45;;;17.30;;
27163;SDS011;14685;50.618;7.024;2024-03-08T02:58:24;27.73;;;17.52;;
27163;SDS011;14685;50.618;7.024;2024-03-08T03:00:52;29.95;;;17.90;;
27163;SDS011;14685;50.618;7.024;2024-03-08T03:03:19;30.08;;;18.00;;
27163;SDS011;14685;50.618;7.024;2024-03-08T03:05:46;23.67;;;16.35;;
27163;SDS011;14685;50.618;7.024;2024-03-08T03:08:14;27.08;;;16.70;;
27163;SDS011;14685;50.618;7.024;2024-03-08T03:10:44;24.67;;;16.40;;
27163;SDS011;14685;50.618;7.024;2024-03-08T03:13:12;26.83;;;18.25;;
27163;SDS011;14685;50.618;7.024;2024-03-08T03:15:40;27.08;;;17.67;;
27163;SDS011;14685;50.618;7.024;2024-03-08T03:18:09;28.02;;;18.40;;
27163;SDS011;14685;50.618;7.024;2024-03-08T03:20:38;26.65;;;17.83;;
27163;SDS011;14685;50.618;7.024;2024-03-08T03:23:10;27.05;;;16.65;;
27163;SDS011;14685;50.618;7.024;2024-03-08T03:25:42;29.88;;;17.83;;
27163;SDS011;14685;50.618;7.024;2024-03-08T03:28:09;29.77;;;17.30;;
27163;SDS011;14685;50.618;7.024;2024-03-08T03:30:37;28.73;;;18.10;;
27163;SDS011;14685;50.618;7.024;2024-03-08T03:33:06;29.38;;;17.35;;
27163;SDS011;14685;50.618;7.024;2024-03-08T03:35:35;26.98;;;17.30;;
27163;SDS011;14685;50.618;7.024;2024-03-08T03:38:04;27.50;;;17.55;;
27163;SDS011;14685;50.618;7.024;2024-03-08T03:40:38;28.38;;;18.48;;
27163;SDS011;14685;50.618;7.024;2024-03-08T03:43:06;29.67;;;18.90;;
27163;SDS011;14685;50.618;7.024;2024-03-08T03:45:39;30.02;;;17.67;;
27163;SDS011;14685;50.618;7.024;2024-03-08T03:48:08;26.85;;;18.50;;
27163;SDS011;14685;50.618;7.024;2024-03-08T03:50:37;30.83;;;17.77;;
27163;SDS011;14685;50.618;7.024;2024-03-08T03:53:06;24.73;;;17.25;;
27163;SDS011;14685;50.618;7.024;2024-03-08T03:55:34;28.90;;;17.23;;
27163;SDS011;14685;50.618;7.024;2024-03-08T03:58:03;33.38;;;18.35;;
27163;SDS011;14685;50.618;7.024;2024-03-08T04:00:31;26.67;;;17.25;;
27163;SDS011;14685;50.618;7.024;2024-03-08T04:02:59;27.75;;;18.15;;
27163;SDS011;14685;50.618;7.024;2024-03-08T04:05:27;29.70;;;18.55;;
27163;SDS011;14685;50.618;7.024;2024-03-08T04:07:56;31.58;;;18.83;;
27163;SDS011;14685;50.618;7.024;2024-03-08T04:10:23;26.52;;;17.67;;
27163;SDS011;14685;50.618;7.024;2024-03-08T04:12:52;30.10;;;18.80;;
27163;SDS011;14685;50.618;7.024;2024-03-08T04:15:19;29.10;;;19.08;;
27163;SDS011;14685;50.618;7.024;2024-03-08T04:17:47;29.00;;;17.33;;
27163;SDS011;14685;50.618;7.024;2024-03-08T04:20:14;27.60;;;17.45;;
27163;SDS011;14685;50.618;7.024;2024-03-08T04:22:41;32.33;;;18.98;;
27163;SDS011;14685;50.618;7.024;2024-03-08T04:25:14;29.40;;;18.30;;
27163;SDS011;14685;50.618;7.024;2024-03-08T04:27:41;28.85;;;18.15;;
27163;SDS011;14685;50.618;7.024;2024-03-08T04:30:08;29.23;;;18.58;;
27163;SDS011;14685;50.618;7.024;2024-03-08T04:32:36;31.60;;;17.73;;
27163;SDS011;14685;50.618;7.024;2024-03-08T04:35:04;31.50;;;18.38;;
27163;SDS011;14685;50.618;7.024;2024-03-08T04:37:36;32.17;;;18.70;;
27163;SDS011;14685;50.618;7.024;2024-03-08T04:40:03;29.20;;;17.83;;
27163;SDS011;14685;50.618;7.024;2024-03-08T04:42:30;32.10;;;17.55;;
27163;SDS011;14685;50.618;7.024;2024-03-08T04:44:59;31.27;;;19.08;;
27163;SDS011;14685;50.618;7.024;2024-03-08T04:47:27;29.10;;;18.27;;
27163;SDS011;14685;50.618;7.024;2024-03-08T04:49:55;28.42;;;17.98;;
27163;SDS011;14685;50.618;7.024;2024-03-08T04:52:23;30.52;;;20.17;;
27163;SDS011;14685;50.618;7.024;2024-03-08T04:54:50;31.15;;;18.67;;
27163;SDS011;14685;50.618;7.024;2024-03-08T04:57:16;28.48;;;18.00;;
27163;SDS011;14685;50.618;7.024;2024-03-08T04:59:46;30.13;;;18.48;;
27163;SDS011;14685;50.618;7.024;2024-03-08T05:02:14;29.65;;;17.98;;
27163;SDS011;14685;50.618;7.024;2024-03-08T05:04:43;28.13;;;17.35;;
27163;SDS011;14685;50.618;7.024;2024-03-08T05:07:13;31.38;;;18.38;;
27163;SDS011;14685;50.618;7.024;2024-03-08T05:09:40;30.58;;;19.55;;
27163;SDS011;14685;50.618;7.024;2024-03-08T05:12:08;29.80;;;18.92;;
27163;SDS011;14685;50.618;7.024;2024-03-08T05:14:34;30.05;;;20.35;;
27163;SDS011;14685;50.618;7.024;2024-03-08T05:17:02;32.70;;;21.55;;
27163;SDS011;14685;50.618;7.024;2024-03-08T05:19:33;29.23;;;19.10;;
27163;SDS011;14685;50.618;7.024;2024-03-08T05:22:00;31.88;;;19.20;;
27163;SDS011;14685;50.618;7.024;2024-03-08T05:24:28;32.92;;;19.85;;
27163;SDS011;14685;50.618;7.024;2024-03-08T05:26:57;31.35;;;19.48;;
27163;SDS011;14685;50.618;7.024;2024-03-08T05:29:26;29.45;;;19.27;;
27163;SDS011;14685;50.618;7.024;2024-03-08T05:31:53;30.75;;;19.92;;
27163;SDS011;14685;50.618;7.024;2024-03-08T05:34:24;27.38;;;19.08;;
27163;SDS011;14685;50.618;7.024;2024-03-08T05:36:52;29.83;;;20.27;;
27163;SDS011;14685;50.618;7.024;2024-03-08T05:39:21;32.90;;;20.23;;
27163;SDS011;14685;50.618;7.024;2024-03-08T05:41:49;32.97;;;19.73;;
27163;SDS011;14685;50.618;7.024;2024-03-08T05:44:19;33.97;;;20.27;;
27163;SDS011;14685;50.618;7.024;2024-03-08T05:46:54;28.58;;;17.83;;
27163;SDS011;14685;50.618;7.024;2024-03-08T05:49:22;29.20;;;19.08;;
27163;SDS011;14685;50.618;7.024;2024-03-08T05:51:51;33.70;;;20.48;;
27163;SDS011;14685;50.618;7.024;2024-03-08T05:54:19;31.10;;;18.90;;
27163;SDS011;14685;50.618;7.024;2024-03-08T05:56:49;30.52;;;19.85;;
27163;SDS011;14685;50.618;7.024;2024-03-08T05:59:19;29.80;;;18.83;;
27163;SDS011;14685;50.618;7.024;2024-03-08T06:01:46;33.45;;;19.42;;
27163;SDS011;14685;50.618;7.024;2024-03-08T06:04:15;29.83;;;19.85;;
27163;SDS011;14685;50.618;7.024;2024-03-08T06:06:44;29.23;;;19.48;;
27163;SDS011;14685;50.618;7.024;2024-03-08T06:09:16;32.15;;;19.60;;
27163;SDS011;14685;50.618;7.024;2024-03-08T06:11:51;32.13;;;19.83;;
27163;SDS011;14685;50.618;7.024;2024-03-08T06:14:20;33.65;;;19.33;;
27163;SDS011;14685;50.618;7.024;2024-03-08T06:16:47;31.50;;;20.42;;
27163;SDS011;14685;50.618;7.024;2024-03-08T06:19:17;31.67;;;20.27;;
27163;SDS011;14685;50.618;7.024;2024-03-08T06:21:45;29.42;;;18.60;;
27163;SDS011;14685;50.618;7.024;2024-03-08T06:24:13;33.08;;;20.70;;
27163;SDS011;14685;50.618;7.024;2024-03-08T06:26:41;29.23;;;19.25;;
27163;SDS011;14685;50.618;7.024;2024-03-08T06:29:09;32.90;;;19.33;;
27163;SDS011;14685;50.618;7.024;2024-03-08T06:31:36;31.35;;;19.17;;
27163;SDS011;14685;50.618;7.024;2024-03-08T06:34:06;33.95;;;19.77;;
27163;SDS011;14685;50.618;7.024;2024-03-08T06:36:35;33.35;;;20.35;;
27163;SDS011;14685;50.618;7.024;2024-03-08T06:39:05;36.30;;;20.88;;
27163;SDS011;14685;50.618;7.024;2024-03-08T06:41:36;33.78;;;20.73;;
27163;SDS011;14685;50.618;7.024;2024-03-08T06:44:06;37.17;;;20.80;;
27163;SDS011;14685;50.618;7.024;2024-03-08T06:46:35;34.83;;;20.77;;
27163;SDS011;14685;50.618;7.024;2024-03-08T06:49:04;30.63;;;19.80;;
27163;SDS011;14685;50.618;7.024;2024-03-08T06:51:33;37.08;;;21.25;;
27163;SDS011;14685;50.618;7.024;2024-03-08T06:54:00;33.35;;;20.63;;
27163;SDS011;14685;50.618;7.024;2024-03-08T06:56:35;30.63;;;19.65;;
27163;SDS011;14685;50.618;7.024;2024-03-08T06:59:02;32.08;;;20.65;;
27163;SDS011;14685;50.618;7.024;2024-03-08T07:01:29;33.83;;;20.80;;
27163;SDS011;14685;50.618;7.024;2024-03-08T07:04:02;33.95;;;20.95;;
27163;SDS011;14685;50.618;7.024;2024-03-08T07:06:31;36.53;;;20.55;;
27163;SDS011;14685;50.618;7.024;2024-03-08T07:09:03;32.42;;;20.25;;
27163;SDS011;14685;50.618;7.024;2024-03-08T07:11:32;33.70;;;19.85;;
27163;SDS011;14685;50.618;7.024;2024-03-08T07:14:01;32.38;;;20.33;;
27163;SDS011;14685;50.618;7.024;2024-03-08T07:16:32;33.20;;;19.92;;
27163;SDS011;14685;50.618;7.024;2024-03-08T07:19:00;37.22;;;20.88;;
27163;SDS011;14685;50.618;7.024;2024-03-08T07:21:28;35.35;;;21.27;;
27163;SDS011;14685;50.618;7.024;2024-03-08T07:23:55;30.77;;;19.80;;
27163;SDS011;14685;50.618;7.024;2024-03-08T07:26:28;33.75;;;21.70;;
27163;SDS011;14685;50.618;7.024;2024-03-08T07:28:56;32.85;;;21.35;;
27163;SDS011;14685;50.618;7.024;2024-03-08T07:31:26;35.97;;;20.58;;
27163;SDS011;14685;50.618;7.024;2024-03-08T07:34:04;31.98;;;20.35;;
27163;SDS011;14685;50.618;7.024;2024-03-08T07:36:34;33.70;;;19.67;;
27163;SDS011;14685;50.618;7.024;2024-03-08T07:39:01;36.13;;;21.20;;
27163;SDS011;14685;50.618;7.024;2024-03-08T07:41:29;33.22;;;21.08;;
27163;SDS011;14685;50.618;7.024;2024-03-08T07:43:57;33.33;;;20.58;;
27163;SDS011;14685;50.618;7.024;2024-03-08T07:46:24;33.83;;;20.02;;
27163;SDS011;14685;50.618;7.024;2024-03-08T07:48:57;35.33;;;20.88;;
27163;SDS011;14685;50.618;7.024;2024-03-08T07:51:24;33.05;;;20.13;;
27163;SDS011;14685;50.618;7.024;2024-03-08T07:53:51;33.22;;;21.05;;
27163;SDS011;14685;50.618;7.024;2024-03-08T07:56:18;33.50;;;21.63;;
27163;SDS011;14685;50.618;7.024;2024-03-08T07:58:48;36.95;;;21.50;;
27163;SDS011;14685;50.618;7.024;2024-03-08T08:01:18;32.55;;;20.58;;
27163;SDS011;14685;50.618;7.024;2024-03-08T08:03:45;36.22;;;20.73;;
27163;SDS011;14685;50.618;7.024;2024-03-08T08:06:15;34.65;;;21.13;;
27163;SDS011;14685;50.618;7.024;2024-03-08T08:08:42;33.88;;;20.88;;
27163;SDS011;14685;50.618;7.024;2024-03-08T08:11:09;31.45;;;19.60;;
27163;SDS011;14685;50.618;7.024;2024-03-08T08:13:42;31.43;;;19.93;;
27163;SDS011;14685;50.618;7.024;2024-03-08T08:16:09;35.45;;;21.63;;
27163;SDS011;14685;50.618;7.024;2024-03-08T08:18:39;34.38;;;21.00;;
27163;SDS011;14685;50.618;7.024;2024-03-08T08:21:07;32.33;;;20.73;;
27163;SDS011;14685;50.618;7.024;2024-03-08T08:23:34;31.13;;;19.33;;
27163;SDS011;14685;50.618;7.024;2024-03-08T08:26:01;30.67;;;20.13;;
27163;SDS011;14685;50.618;7.024;2024-03-08T08:28:31;34.53;;;20.35;;
27163;SDS011;14685;50.618;7.024;2024-03-08T08:30:58;29.52;;;19.05;;
27163;SDS011;14685;50.618;7.024;2024-03-08T08:33:26;30.33;;;19.38;;
27163;SDS011;14685;50.618;7.024;2024-03-08T08:35:53;33.10;;;21.35;;
27163;SDS011;14685;50.618;7.024;2024-03-08T08:38:20;31.98;;;19.63;;
27163;SDS011;14685;50.618;7.024;2024-03-08T08:40:48;29.73;;;19.63;;
27163;SDS011;14685;50.618;7.024;2024-03-08T08:43:15;30.35;;;19.92;;
27163;SDS011;14685;50.618;7.024;2024-03-08T08:45:45;29.85;;;19.13;;
27163;SDS011;14685;50.618;7.024;2024-03-08T08:48:13;32.35;;;19.20;;
27163;SDS011;14685;50.618;7.024;2024-03-08T08:50:41;26.70;;;18.63;;
27163;SDS011;14685;50.618;7.024;2024-03-08T08:53:09;30.70;;;18.85;;
27163;SDS011;14685;50.618;7.024;2024-03-08T08:55:38;29.33;;;19.50;;
27163;SDS011;14685;50.618;7.024;2024-03-08T08:58:06;32.58;;;20.95;;
27163;SDS011;14685;50.618;7.024;2024-03-08T09:00:33;30.17;;;20.33;;
27163;SDS011;14685;50.618;7.024;2024-03-08T09:03:01;28.27;;;19.05;;
27163;SDS011;14685;50.618;7.024;2024-03-08T09:05:30;31.73;;;20.45;;
27163;SDS011;14685;50.618;7.024;2024-03-08T09:08:01;30.65;;;19.25;;
27163;SDS011;14685;50.618;7.024;2024-03-08T09:10:31;28.73;;;19.35;;
27163;SDS011;14685;50.618;7.024;2024-03-08T09:12:59;29.67;;;18.50;;
27163;SDS011;14685;50.618;7.024;2024-03-08T09:15:28;29.88;;;17.98;;
27163;SDS011;14685;50.618;7.024;2024-03-08T09:17:56;29.38;;;18.63;;
27163;SDS011;14685;50.618;7.024;2024-03-08T09:20:23;29.50;;;18.52;;
27163;SDS011;14685;50.618;7.024;2024-03-08T09:22:51;29.55;;;18.73;;
27163;SDS011;14685;50.618;7.024;2024-03-08T09:25:18;31.13;;;20.02;;
27163;SDS011;14685;50.618;7.024;2024-03-08T09:27:45;29.27;;;19.02;;
27163;SDS011;14685;50.618;7.024;2024-03-08T09:30:15;29.58;;;18.58;;
27163;SDS011;14685;50.618;7.024;2024-03-08T09:32:42;32.33;;;20.33;;
27163;SDS011;14685;50.618;7.024;2024-03-08T09:35:10;29.83;;;18.95;;
27163;SDS011;14685;50.618;7.024;2024-03-08T09:37:37;29.83;;;19.17;;
27163;SDS011;14685;50.618;7.024;2024-03-08T09:40:04;32.28;;;20.52;;
27163;SDS011;14685;50.618;7.024;2024-03-08T09:42:36;28.30;;;18.55;;
27163;SDS011;14685;50.618;7.024;2024-03-08T09:45:07;29.70;;;19.48;;
27163;SDS011;14685;50.618;7.024;2024-03-08T09:47:40;32.03;;;19.85;;
27163;SDS011;14685;50.618;7.024;2024-03-08T09:50:08;30.60;;;19.35;;
27163;SDS011;14685;50.618;7.024;2024-03-08T09:52:36;30.98;;;19.40;;
27163;SDS011;14685;50.618;7.024;2024-03-08T09:55:04;31.10;;;17.98;;
27163;SDS011;14685;50.618;7.024;2024-03-08T09:57:36;28.38;;;18.70;;
27163;SDS011;14685;50.618;7.024;2024-03-08T10:00:06;25.52;;;17.80;;
27163;SDS011;14685;50.618;7.024;2024-03-08T10:02:51;27.80;;;17.27;;
27163;SDS011;14685;50.618;7.024;2024-03-08T10:05:20;29.80;;;17.60;;
27163;SDS011;14685;50.618;7.024;2024-03-08T10:07:49;26.50;;;18.02;;
27163;SDS011;14685;50.618;7.024;2024-03-08T10:10:16;28.95;;;18.63;;
27163;SDS011;14685;50.618;7.024;2024-03-08T10:12:43;26.48;;;18.55;;
27163;SDS011;14685;50.618;7.024;2024-03-08T10:15:12;24.88;;;17.05;;
27163;SDS011;14685;50.618;7.024;2024-03-08T10:17:39;25.52;;;17.30;;
27163;SDS011;14685;50.618;7.024;2024-03-08T10:20:13;25.90;;;17.30;;
27163;SDS011;14685;50.618;7.024;2024-03-08T10:22:42;27.52;;;18.45;;
27163;SDS011;14685;50.618;7.024;2024-03-08T10:25:32;24.90;;;16.38;;
27163;SDS011;14685;50.618;7.024;2024-03-08T10:28:02;25.35;;;16.70;;
27163;SDS011;14685;50.618;7.024;2024-03-08T10:30:31;24.98;;;16.10;;
27163;SDS011;14685;50.618;7.024;2024-03-08T10:32:59;25.17;;;15.93;;
27163;SDS011;14685;50.618;7.024;2024-03-08T10:35:26;24.77;;;15.95;;
27163;SDS011;14685;50.618;7.024;2024-03-08T10:37:53;24.95;;;16.42;;
27163;SDS011;14685;50.618;7.024;2024-03-08T10:40:27;22.40;;;14.65;;
27163;SDS011;14685;50.618;7.024;2024-03-08T10:42:55;25.67;;;16.85;;
27163;SDS011;14685;50.618;7.024;2024-03-08T10:45:30;25.02;;;15.80;;
27163;SDS011;14685;50.618;7.024;2024-03-08T10:50:35;25.05;;;16.08;;
27163;SDS011;14685;50.618;7.024;2024-03-08T10:53:05;23.27;;;15.73;;
27163;SDS011;14685;50.618;7.024;2024-03-08T10:55:33;23.77;;;15.07;;
27163;SDS011;14685;50.618;7.024;2024-03-08T10:58:03;27.17;;;15.05;;
27163;SDS011;14685;50.618;7.024;2024-03-08T11:00:30;26.30;;;15.07;;
27163;SDS011;14685;50.618;7.024;2024-03-08T11:02:58;22.33;;;14.85;;
27163;SDS011;14685;50.618;7.024;2024-03-08T11:05:40;23.45;;;15.15;;
27163;SDS011;14685;50.618;7.024;2024-03-08T11:10:50;22.13;;;13.98;;
27163;SDS011;14685;50.618;7.024;2024-03-08T11:13:32;20.10;;;13.85;;
27163;SDS011;14685;50.618;7.024;2024-03-08T11:16:02;19.63;;;13.35;;
27163;SDS011;14685;50.618;7.024;2024-03-08T11:18:37;20.83;;;13.23;;
27163;SDS011;14685;50.618;7.024;2024-03-08T11:21:04;19.88;;;13.30;;
27163;SDS011;14685;50.618;7.024;2024-03-08T11:23:39;21.52;;;13.90;;
27163;SDS011;14685;50.618;7.024;2024-03-08T11:26:23;21.42;;;13.07;;
27163;SDS011;14685;50.618;7.024;2024-03-08T11:28:50;22.48;;;13.77;;
27163;SDS011;14685;50.618;7.024;2024-03-08T11:31:23;22.10;;;14.00;;
27163;SDS011;14685;50.618;7.024;2024-03-08T11:33:53;21.23;;;14.45;;
27163;SDS011;14685;50.618;7.024;2024-03-08T11:36:23;20.48;;;13.60;;
27163;SDS011;14685;50.618;7.024;2024-03-08T11:38:53;24.10;;;12.20;;
27163;SDS011;14685;50.618;7.024;2024-03-08T11:41:22;20.88;;;13.23;;
27163;SDS011;14685;50.618;7.024;2024-03-08T11:44:01;19.42;;;13.20;;
27163;SDS011;14685;50.618;7.024;2024-03-08T11:46:33;20.40;;;13.18;;
27163;SDS011;14685;50.618;7.024;2024-03-08T11:49:00;17.48;;;12.85;;
27163;SDS011;14685;50.618;7.024;2024-03-08T11:51:27;18.08;;;12.40;;
27163;SDS011;14685;50.618;7.024;2024-03-08T11:53:54;18.60;;;11.77;;
27163;SDS011;14685;50.618;7.024;2024-03-08T11:56:22;17.95;;;11.27;;
27163;SDS011;14685;50.618;7.024;2024-03-08T11:58:53;19.17;;;11.40;;
27163;SDS011;14685;50.618;7.024;2024-03-08T12:01:24;19.33;;;11.70;;
27163;SDS011;14685;50.618;7.024;2024-03-08T12:03:55;15.80;;;11.20;;
27163;SDS011;14685;50.618;7.024;2024-03-08T12:08:53;15.30;;;11.13;;
27163;SDS011;14685;50.618;7.024;2024-03-08T12:11:20;17.15;;;10.57;;
27163;SDS011;14685;50.618;7.024;2024-03-08T12:13:51;18.23;;;12.23;;
27163;SDS011;14685;50.618;7.024;2024-03-08T12:16:19;17.50;;;10.77;;
27163;SDS011;14685;50.618;7.024;2024-03-08T12:18:50;19.95;;;11.73;;
27163;SDS011;14685;50.618;7.024;2024-03-08T12:21:20;18.05;;;12.05;;
27163;SDS011;14685;50.618;7.024;2024-03-08T12:24:04;17.30;;;11.23;;
27163;SDS011;14685;50.618;7.024;2024-03-08T12:26:35;16.88;;;11.30;;
27163;SDS011;14685;50.618;7.024;2024-03-08T12:29:20;15.55;;;11.07;;
27163;SDS011;14685;50.618;7.024;2024-03-08T12:31:53;18.05;;;11.60;;
27163;SDS011;14685;50.618;7.024;2024-03-08T12:34:22;15.25;;;11.15;;
27163;SDS011;14685;50.618;7.024;2024-03-08T12:36:50;16.10;;;11.18;;
27163;SDS011;14685;50.618;7.024;2024-03-08T12:39:21;15.75;;;10.98;;
27163;SDS011;14685;50.618;7.024;2024-03-08T12:41:49;18.55;;;11.77;;
27163;SDS011;14685;50.618;7.024;2024-03-08T12:44:18;16.38;;;11.60;;
27163;SDS011;14685;50.618;7.024;2024-03-08T12:46:48;19.55;;;11.95;;
27163;SDS011;14685;50.618;7.024;2024-03-08T12:49:19;16.38;;;11.13;;
27163;SDS011;14685;50.618;7.024;2024-03-08T12:51:49;19.17;;;12.90;;
27163;SDS011;14685;50.618;7.024;2024-03-08T12:54:16;19.65;;;12.40;;
27163;SDS011;14685;50.618;7.024;2024-03-08T12:56:43;18.58;;;12.43;;
27163;SDS011;14685;50.618;7.024;2024-03-08T12:59:10;18.73;;;12.38;;
27163;SDS011;14685;50.618;7.024;2024-03-08T13:01:39;18.52;;;11.65;;
27163;SDS011;14685;50.618;7.024;2024-03-08T13:04:07;18.75;;;11.70;;
27163;SDS011;14685;50.618;7.024;2024-03-08T13:06:38;17.75;;;11.88;;
27163;SDS011;14685;50.618;7.024;2024-03-08T13:09:06;16.08;;;11.23;;
27163;SDS011;14685;50.618;7.024;2024-03-08T13:11:32;15.00;;;10.82;;
27163;SDS011;14685;50.618;7.024;2024-03-08T13:14:03;18.17;;;12.40;;
27163;SDS011;14685;50.618;7.024;2024-03-08T13:16:32;18.23;;;12.35;;
27163;SDS011;14685;50.618;7.024;2024-03-08T13:19:01;19.75;;;12.45;;
27163;SDS011;14685;50.618;7.024;2024-03-08T13:21:29;18.05;;;11.88;;
27163;SDS011;14685;50.618;7.024;2024-03-08T13:23:58;18.75;;;12.48;;
27163;SDS011;14685;50.618;7.024;2024-03-08T13:26:28;18.48;;;11.55;;
27163;SDS011;14685;50.618;7.024;2024-03-08T13:28:59;15.25;;;11.35;;
27163;SDS011;14685;50.618;7.024;2024-03-08T13:31:27;17.20;;;11.43;;
27163;SDS011;14685;50.618;7.024;2024-03-08T13:33:54;15.77;;;11.05;;
27163;SDS011;14685;50.618;7.024;2024-03-08T13:36:24;18.60;;;12.07;;
27163;SDS011;14685;50.618;7.024;2024-03-08T13:38:55;19.17;;;11.45;;
27163;SDS011;14685;50.618;7.024;2024-03-08T13:41:26;20.95;;;13.43;;
27163;SDS011;14685;50.618;7.024;2024-03-08T13:43:56;17.63;;;12.07;;
27163;SDS011;14685;50.618;7.024;2024-03-08T13:46:24;18.65;;;12.55;;
27163;SDS011;14685;50.618;7.024;2024-03-08T13:48:51;18.20;;;12.18;;
27163;SDS011;14685;50.618;7.024;2024-03-08T13:51:20;16.77;;;11.02;;
27163;SDS011;14685;50.618;7.024;2024-03-08T13:53:50;17.80;;;11.88;;
27163;SDS011;14685;50.618;7.024;2024-03-08T13:56:17;20.20;;;13.05;;
27163;SDS011;14685;50.618;7.024;2024-03-08T13:58:45;19.40;;;12.68;;
27163;SDS011;14685;50.618;7.024;2024-03-08T14:01:15;16.85;;;11.45;;
27163;SDS011;14685;50.618;7.024;2024-03-08T14:03:43;18.42;;;12.13;;
27163;SDS011;14685;50.618;7.024;2024-03-08T14:06:12;21.25;;;12.30;;
27163;SDS011;14685;50.618;7.024;2024-03-08T14:08:47;18.15;;;12.13;;
27163;SDS011;14685;50.618;7.024;2024-03-08T14:11:14;20.05;;;13.00;;
27163;SDS011;14685;50.618;7.024;2024-03-08T14:13:45;20.95;;;12.70;;
27163;SDS011;14685;50.618;7.024;2024-03-08T14:16:14;18.30;;;12.10;;
27163;SDS011;14685;50.618;7.024;2024-03-08T14:18:42;17.27;;;12.30;;
27163;SDS011;14685;50.618;7.024;2024-03-08T14:21:09;17.58;;;12.65;;
27163;SDS011;14685;50.618;7.024;2024-03-08T14:23:40;19.25;;;12.15;;
27163;SDS011;14685;50.618;7.024;2024-03-08T14:26:09;18.63;;;12.50;;
27163;SDS011;14685;50.618;7.024;2024-03-08T14:28:39;17.80;;;12.52;;
27163;SDS011;14685;50.618;7.024;2024-03-08T14:31:07;17.50;;;12.43;;
27163;SDS011;14685;50.618;7.024;2024-03-08T14:33:38;19.95;;;12.48;;
27163;SDS011;14685;50.618;7.024;2024-03-08T14:36:08;19.73;;;11.77;;
27163;SDS011;14685;50.618;7.024;2024-03-08T14:38:37;18.40;;;12.48;;
27163;SDS011;14685;50.618;7.024;2024-03-08T14:41:04;19.83;;;12.57;;